sensor_id;sensor_type;location;lat;lon;timestamp;temperature;humidity
44705;DHT22;30431;48.520;9.046;2022-12-18T00:01:56;-8.90;99.90
44705;DHT22;30431;48.520;9.046;2022-12-18T00:04:23;-8.80;99.90
44705;DHT22;30431;48.520;9.046;2022-12-18T00:06:51;-8.80;99.90
44705;DHT22;30431;48.520;9.046;2022-12-18T00:09:20;-8.80;99.90
44705;DHT22;30431;48.520;9.046;2022-12-18T00:11:50;-9.00;99.90
44705;DHT22;30431;48.520;9.046;2022-12-18T00:14:17;-9.00;99.90
44705;DHT22;30431;48.520;9.046;2022-12-18T00:16:46;-8.90;99.90
44705;DHT22;30431;48.520;9.046;2022-12-18T00:19:13;-8.70;99.90
44705;DHT22;30431;48.520;9.046;2022-12-18T00:21:43;-8.60;99.90
44705;DHT22;30431;48.520;9.046;2022-12-18T00:24:12;-8.60;99.90
44705;DHT22;30431;48.520;9.046;2022-12-18T00:26:39;-8.50;99.90
44705;DHT22;30431;48.520;9.046;2022-12-18T00:29:10;-8.50;99.90
44705;DHT22;30431;48.520;9.046;2022-12-18T00:31:37;-8.60;99.90
44705;DHT22;30431;48.520;9.046;2022-12-18T00:34:08;-8.80;99.90
44705;DHT22;30431;48.520;9.046;2022-12-18T00:36:39;-9.00;99.90
44705;DHT22;30431;48.520;9.046;2022-12-18T00:39:06;-9.30;99.90
44705;DHT22;30431;48.520;9.046;2022-12-18T00:41:33;-9.30;99.90
44705;DHT22;30431;48.520;9.046;2022-12-18T00:44:21;-9.30;99.90
44705;DHT22;30431;48.520;9.046;2022-12-18T00:46:50;-9.10;99.90
44705;DHT22;30431;48.520;9.046;2022-12-18T00:49:17;-9.10;99.90
44705;DHT22;30431;48.520;9.046;2022-12-18T00:51:45;-9.20;99.90
44705;DHT22;30431;48.520;9.046;2022-12-18T00:54:12;-9.30;99.90
44705;DHT22;30431;48.520;9.046;2022-12-18T00:56:42;-9.20;99.90
44705;DHT22;30431;48.520;9.046;2022-12-18T00:59:16;-9.20;99.90
44705;DHT22;30431;48.520;9.046;2022-12-18T01:01:42;-9.20;99.90
44705;DHT22;30431;48.520;9.046;2022-12-18T01:04:09;-9.30;99.90
44705;DHT22;30431;48.520;9.046;2022-12-18T01:06:41;-9.50;99.90
44705;DHT22;30431;48.520;9.046;2022-12-18T01:09:10;-9.60;99.90
44705;DHT22;30431;48.520;9.046;2022-12-18T01:11:37;-9.80;99.90
44705;DHT22;30431;48.520;9.046;2022-12-18T01:14:07;-10.00;99.90
44705;DHT22;30431;48.520;9.046;2022-12-18T01:16:36;-9.90;99.90
44705;DHT22;30431;48.520;9.046;2022-12-18T01:19:06;-9.90;99.90
44705;DHT22;30431;48.520;9.046;2022-12-18T01:21:33;-10.00;99.90
44705;DHT22;30431;48.520;9.046;2022-12-18T01:24:05;-9.90;99.90
44705;DHT22;30431;48.520;9.046;2022-12-18T01:26:34;-9.90;99.90
44705;DHT22;30431;48.520;9.046;2022-12-18T01:29:01;-9.90;99.90
44705;DHT22;30431;48.520;9.046;2022-12-18T01:31:31;-9.90;99.90
44705;DHT22;30431;48.520;9.046;2022-12-18T01:34:01;-9.90;99.90
44705;DHT22;30431;48.520;9.046;2022-12-18T01:36:29;-10.00;99.90
44705;DHT22;30431;48.520;9.046;2022-12-18T01:39:03;-9.90;99.90
44705;DHT22;30431;48.520;9.046;2022-12-18T01:41:31;-10.00;99.90
44705;DHT22;30431;48.520;9.046;2022-12-18T01:47:06;-9.90;99.90
44705;DHT22;30431;48.520;9.046;2022-12-18T01:49:35;-9.90;99.90
44705;DHT22;30431;48.520;9.046;2022-12-18T01:52:02;-9.90;99.90
44705;DHT22;30431;48.520;9.046;2022-12-18T01:54:29;-9.90;99.90
44705;DHT22;30431;48.520;9.046;2022-12-18T01:56:56;-9.90;99.90
44705;DHT22;30431;48.520;9.046;2022-12-18T01:59:25;-9.90;99.90
44705;DHT22;30431;48.520;9.046;2022-12-18T02:01:52;-9.80;99.90
44705;DHT22;30431;48.520;9.046;2022-12-18T02:04:20;-9.70;99.90
44705;DHT22;30431;48.520;9.046;2022-12-18T02:06:50;-9.60;99.90
44705;DHT22;30431;48.520;9.046;2022-12-18T02:09:24;-9.70;99.90
44705;DHT22;30431;48.520;9.046;2022-12-18T02:27:45;-9.90;99.90
44705;DHT22;30431;48.520;9.046;2022-12-18T02:30:17;-9.80;99.90
44705;DHT22;30431;48.520;9.046;2022-12-18T02:32:52;-9.50;99.90
44705;DHT22;30431;48.520;9.046;2022-12-18T02:35:23;-9.40;99.90
44705;DHT22;30431;48.520;9.046;2022-12-18T02:37:53;-9.30;99.90
44705;DHT22;30431;48.520;9.046;2022-12-18T02:40:22;-9.30;99.90
44705;DHT22;30431;48.520;9.046;2022-12-18T02:42:50;-9.30;99.90
44705;DHT22;30431;48.520;9.046;2022-12-18T02:45:18;-9.30;99.90
44705;DHT22;30431;48.520;9.046;2022-12-18T02:47:47;-9.10;99.90
44705;DHT22;30431;48.520;9.046;2022-12-18T02:58:25;-9.10;99.90
44705;DHT22;30431;48.520;9.046;2022-12-18T03:01:02;-9.20;99.90
44705;DHT22;30431;48.520;9.046;2022-12-18T03:03:38;-9.10;99.90
44705;DHT22;30431;48.520;9.046;2022-12-18T03:06:10;-9.10;99.90
44705;DHT22;30431;48.520;9.046;2022-12-18T03:08:44;-9.20;99.90
44705;DHT22;30431;48.520;9.046;2022-12-18T03:11:15;-9.20;99.90
44705;DHT22;30431;48.520;9.046;2022-12-18T03:13:43;-9.20;99.90
44705;DHT22;30431;48.520;9.046;2022-12-18T03:16:15;-9.20;99.90
44705;DHT22;30431;48.520;9.046;2022-12-18T03:21:19;-9.50;99.90
44705;DHT22;30431;48.520;9.046;2022-12-18T03:23:48;-9.50;99.90
44705;DHT22;30431;48.520;9.046;2022-12-18T03:26:18;-9.60;99.90
44705;DHT22;30431;48.520;9.046;2022-12-18T03:28:53;-9.60;99.90
44705;DHT22;30431;48.520;9.046;2022-12-18T03:31:24;-9.60;99.90
44705;DHT22;30431;48.520;9.046;2022-12-18T03:33:57;-9.70;99.90
44705;DHT22;30431;48.520;9.046;2022-12-18T03:36:39;-9.60;99.90
44705;DHT22;30431;48.520;9.046;2022-12-18T03:39:06;-9.60;99.90
44705;DHT22;30431;48.520;9.046;2022-12-18T03:44:40;-9.60;99.90
44705;DHT22;30431;48.520;9.046;2022-12-18T03:47:18;-9.60;99.90
44705;DHT22;30431;48.520;9.046;2022-12-18T03:49:48;-9.50;99.90
44705;DHT22;30431;48.520;9.046;2022-12-18T03:52:38;-9.50;99.90
44705;DHT22;30431;48.520;9.046;2022-12-18T03:55:08;-9.40;99.90
44705;DHT22;30431;48.520;9.046;2022-12-18T03:57:40;-9.30;99.90
44705;DHT22;30431;48.520;9.046;2022-12-18T04:00:12;-9.50;99.90
44705;DHT22;30431;48.520;9.046;2022-12-18T04:02:40;-9.70;99.90
44705;DHT22;30431;48.520;9.046;2022-12-18T04:05:10;-9.80;99.90
44705;DHT22;30431;48.520;9.046;2022-12-18T04:07:41;-9.70;99.90
44705;DHT22;30431;48.520;9.046;2022-12-18T04:10:11;-9.80;99.90
44705;DHT22;30431;48.520;9.046;2022-12-18T04:12:39;-9.90;99.90
44705;DHT22;30431;48.520;9.046;2022-12-18T04:15:13;-9.90;99.90
44705;DHT22;30431;48.520;9.046;2022-12-18T04:17:47;-9.80;99.90
44705;DHT22;30431;48.520;9.046;2022-12-18T04:20:18;-9.80;99.90
44705;DHT22;30431;48.520;9.046;2022-12-18T04:22:45;-9.60;99.90
44705;DHT22;30431;48.520;9.046;2022-12-18T04:25:15;-9.40;99.90
44705;DHT22;30431;48.520;9.046;2022-12-18T04:28:02;-9.30;99.90
44705;DHT22;30431;48.520;9.046;2022-12-18T04:30:29;-9.20;99.90
44705;DHT22;30431;48.520;9.046;2022-12-18T04:32:59;-9.20;99.90
44705;DHT22;30431;48.520;9.046;2022-12-18T04:35:26;-9.20;99.90
44705;DHT22;30431;48.520;9.046;2022-12-18T04:37:56;-9.20;99.90
44705;DHT22;30431;48.520;9.046;2022-12-18T04:40:23;-9.10;99.90
44705;DHT22;30431;48.520;9.046;2022-12-18T04:42:50;-9.20;99.90
44705;DHT22;30431;48.520;9.046;2022-12-18T04:45:17;-9.20;99.90
44705;DHT22;30431;48.520;9.046;2022-12-18T04:47:44;-9.20;99.90
44705;DHT22;30431;48.520;9.046;2022-12-18T04:50:14;-9.10;99.90
44705;DHT22;30431;48.520;9.046;2022-12-18T04:52:41;-9.10;99.90
44705;DHT22;30431;48.520;9.046;2022-12-18T04:55:08;-9.10;99.90
44705;DHT22;30431;48.520;9.046;2022-12-18T04:57:35;-9.00;99.90
44705;DHT22;30431;48.520;9.046;2022-12-18T05:00:02;-9.00;99.90
44705;DHT22;30431;48.520;9.046;2022-12-18T05:02:29;-9.00;99.90
44705;DHT22;30431;48.520;9.046;2022-12-18T05:04:56;-8.80;99.90
44705;DHT22;30431;48.520;9.046;2022-12-18T05:07:25;-8.80;99.90
44705;DHT22;30431;48.520;9.046;2022-12-18T05:09:52;-8.80;99.90
44705;DHT22;30431;48.520;9.046;2022-12-18T05:12:19;-8.70;99.90
44705;DHT22;30431;48.520;9.046;2022-12-18T05:14:45;-8.70;99.90
44705;DHT22;30431;48.520;9.046;2022-12-18T05:17:17;-8.70;99.90
44705;DHT22;30431;48.520;9.046;2022-12-18T05:19:47;-8.60;99.90
44705;DHT22;30431;48.520;9.046;2022-12-18T05:22:14;-8.60;99.90
44705;DHT22;30431;48.520;9.046;2022-12-18T05:24:43;-8.50;99.90
44705;DHT22;30431;48.520;9.046;2022-12-18T05:27:10;-8.50;99.90
44705;DHT22;30431;48.520;9.046;2022-12-18T05:29:39;-8.50;99.90
44705;DHT22;30431;48.520;9.046;2022-12-18T05:32:06;-8.50;99.90
44705;DHT22;30431;48.520;9.046;2022-12-18T05:34:33;-8.60;99.90
44705;DHT22;30431;48.520;9.046;2022-12-18T05:37:02;-8.70;99.90
44705;DHT22;30431;48.520;9.046;2022-12-18T05:39:29;-8.70;99.90
44705;DHT22;30431;48.520;9.046;2022-12-18T05:41:56;-8.70;99.90
44705;DHT22;30431;48.520;9.046;2022-12-18T05:44:23;-8.70;99.90
44705;DHT22;30431;48.520;9.046;2022-12-18T05:46:52;-8.70;99.90
44705;DHT22;30431;48.520;9.046;2022-12-18T05:49:19;-8.80;99.90
44705;DHT22;30431;48.520;9.046;2022-12-18T05:51:46;-8.90;99.90
44705;DHT22;30431;48.520;9.046;2022-12-18T05:54:13;-8.90;99.90
44705;DHT22;30431;48.520;9.046;2022-12-18T05:56:40;-8.90;99.90
44705;DHT22;30431;48.520;9.046;2022-12-18T05:59:16;-8.80;99.90
44705;DHT22;30431;48.520;9.046;2022-12-18T06:01:43;-8.80;99.90
44705;DHT22;30431;48.520;9.046;2022-12-18T06:04:10;-8.80;99.90
44705;DHT22;30431;48.520;9.046;2022-12-18T06:06:38;-8.80;99.90
44705;DHT22;30431;48.520;9.046;2022-12-18T06:09:04;-8.90;99.90
44705;DHT22;30431;48.520;9.046;2022-12-18T06:11:36;-8.90;99.90
44705;DHT22;30431;48.520;9.046;2022-12-18T06:14:03;-9.00;99.90
44705;DHT22;30431;48.520;9.046;2022-12-18T06:16:31;-9.00;99.90
44705;DHT22;30431;48.520;9.046;2022-12-18T06:19:01;-9.00;99.90
44705;DHT22;30431;48.520;9.046;2022-12-18T06:21:28;-9.20;99.90
44705;DHT22;30431;48.520;9.046;2022-12-18T06:23:59;-9.20;99.90
44705;DHT22;30431;48.520;9.046;2022-12-18T06:26:26;-9.20;99.90
44705;DHT22;30431;48.520;9.046;2022-12-18T06:28:54;-9.20;99.90
44705;DHT22;30431;48.520;9.046;2022-12-18T06:31:21;-9.50;99.90
44705;DHT22;30431;48.520;9.046;2022-12-18T06:33:48;-9.50;99.90
44705;DHT22;30431;48.520;9.046;2022-12-18T06:36:17;-9.50;99.90
44705;DHT22;30431;48.520;9.046;2022-12-18T06:38:44;-9.50;99.90
44705;DHT22;30431;48.520;9.046;2022-12-18T06:41:12;-9.40;99.90
44705;DHT22;30431;48.520;9.046;2022-12-18T06:43:39;-9.30;99.90
44705;DHT22;30431;48.520;9.046;2022-12-18T06:46:07;-9.30;99.90
44705;DHT22;30431;48.520;9.046;2022-12-18T06:48:37;-9.40;99.90
44705;DHT22;30431;48.520;9.046;2022-12-18T06:51:04;-9.50;99.90
44705;DHT22;30431;48.520;9.046;2022-12-18T06:53:32;-9.60;99.90
44705;DHT22;30431;48.520;9.046;2022-12-18T06:56:02;-9.80;99.90
44705;DHT22;30431;48.520;9.046;2022-12-18T06:58:36;-9.90;99.90
44705;DHT22;30431;48.520;9.046;2022-12-18T07:01:03;-9.90;99.90
44705;DHT22;30431;48.520;9.046;2022-12-18T07:03:33;-9.90;99.90
44705;DHT22;30431;48.520;9.046;2022-12-18T07:06:00;-9.90;99.90
44705;DHT22;30431;48.520;9.046;2022-12-18T07:08:28;-9.80;99.90
44705;DHT22;30431;48.520;9.046;2022-12-18T07:10:58;-9.80;99.90
44705;DHT22;30431;48.520;9.046;2022-12-18T07:13:27;-10.00;99.90
44705;DHT22;30431;48.520;9.046;2022-12-18T07:15:54;-10.00;99.90
44705;DHT22;30431;48.520;9.046;2022-12-18T07:18:23;-9.80;99.90
44705;DHT22;30431;48.520;9.046;2022-12-18T07:20:50;-9.60;99.90
44705;DHT22;30431;48.520;9.046;2022-12-18T07:23:19;-9.50;99.90
44705;DHT22;30431;48.520;9.046;2022-12-18T07:25:49;-9.30;99.90
44705;DHT22;30431;48.520;9.046;2022-12-18T07:28:18;-9.20;99.90
44705;DHT22;30431;48.520;9.046;2022-12-18T07:30:45;-9.00;99.90
44705;DHT22;30431;48.520;9.046;2022-12-18T07:33:13;-9.10;99.90
44705;DHT22;30431;48.520;9.046;2022-12-18T07:35:40;-9.10;99.90
44705;DHT22;30431;48.520;9.046;2022-12-18T07:38:06;-9.10;99.90
44705;DHT22;30431;48.520;9.046;2022-12-18T07:40:36;-9.00;99.90
44705;DHT22;30431;48.520;9.046;2022-12-18T07:43:05;-8.90;99.90
44705;DHT22;30431;48.520;9.046;2022-12-18T07:45:32;-9.00;99.90
44705;DHT22;30431;48.520;9.046;2022-12-18T07:47:59;-9.00;99.90
44705;DHT22;30431;48.520;9.046;2022-12-18T07:50:26;-9.00;99.90
44705;DHT22;30431;48.520;9.046;2022-12-18T07:52:53;-9.10;99.90
44705;DHT22;30431;48.520;9.046;2022-12-18T07:55:20;-9.10;99.90
44705;DHT22;30431;48.520;9.046;2022-12-18T07:57:51;-9.20;99.90
44705;DHT22;30431;48.520;9.046;2022-12-18T08:00:26;-9.40;99.90
44705;DHT22;30431;48.520;9.046;2022-12-18T08:02:53;-9.40;99.90
44705;DHT22;30431;48.520;9.046;2022-12-18T08:05:20;-9.50;99.90
44705;DHT22;30431;48.520;9.046;2022-12-18T08:07:47;-9.60;99.90
44705;DHT22;30431;48.520;9.046;2022-12-18T08:10:14;-9.80;99.90
44705;DHT22;30431;48.520;9.046;2022-12-18T08:12:50;-9.80;99.90
44705;DHT22;30431;48.520;9.046;2022-12-18T08:15:17;-9.90;99.90
44705;DHT22;30431;48.520;9.046;2022-12-18T08:17:46;-10.00;99.90
44705;DHT22;30431;48.520;9.046;2022-12-18T08:20:15;-10.00;99.90
44705;DHT22;30431;48.520;9.046;2022-12-18T08:22:43;-10.30;99.90
44705;DHT22;30431;48.520;9.046;2022-12-18T08:25:10;-10.10;99.90
44705;DHT22;30431;48.520;9.046;2022-12-18T08:27:37;-9.90;99.90
44705;DHT22;30431;48.520;9.046;2022-12-18T08:30:04;-9.90;99.90
44705;DHT22;30431;48.520;9.046;2022-12-18T08:32:35;-9.70;99.90
44705;DHT22;30431;48.520;9.046;2022-12-18T08:35:02;-9.40;99.90
44705;DHT22;30431;48.520;9.046;2022-12-18T08:37:30;-9.30;99.90
44705;DHT22;30431;48.520;9.046;2022-12-18T08:39:57;-9.20;99.90
44705;DHT22;30431;48.520;9.046;2022-12-18T08:42:24;-9.20;99.90
44705;DHT22;30431;48.520;9.046;2022-12-18T08:45:10;-9.30;99.90
44705;DHT22;30431;48.520;9.046;2022-12-18T08:47:37;-9.30;99.90
44705;DHT22;30431;48.520;9.046;2022-12-18T08:50:04;-9.20;99.90
44705;DHT22;30431;48.520;9.046;2022-12-18T08:52:31;-9.00;99.90
44705;DHT22;30431;48.520;9.046;2022-12-18T08:55:02;-9.00;99.90
44705;DHT22;30431;48.520;9.046;2022-12-18T08:57:29;-8.90;99.90
44705;DHT22;30431;48.520;9.046;2022-12-18T09:00:04;-9.00;99.90
44705;DHT22;30431;48.520;9.046;2022-12-18T09:02:33;-8.90;99.90
44705;DHT22;30431;48.520;9.046;2022-12-18T09:08:14;-8.90;99.90
44705;DHT22;30431;48.520;9.046;2022-12-18T09:10:45;-8.70;99.90
44705;DHT22;30431;48.520;9.046;2022-12-18T09:13:12;-8.70;99.90
44705;DHT22;30431;48.520;9.046;2022-12-18T09:15:40;-8.80;99.90
44705;DHT22;30431;48.520;9.046;2022-12-18T09:18:07;-8.60;99.90
44705;DHT22;30431;48.520;9.046;2022-12-18T09:20:36;-8.50;99.90
44705;DHT22;30431;48.520;9.046;2022-12-18T09:23:03;-8.40;99.90
44705;DHT22;30431;48.520;9.046;2022-12-18T09:25:30;-8.30;99.90
44705;DHT22;30431;48.520;9.046;2022-12-18T09:28:03;-8.20;99.90
44705;DHT22;30431;48.520;9.046;2022-12-18T09:30:30;-8.10;99.90
44705;DHT22;30431;48.520;9.046;2022-12-18T09:33:00;-8.00;99.90
44705;DHT22;30431;48.520;9.046;2022-12-18T09:35:30;-8.00;99.90
44705;DHT22;30431;48.520;9.046;2022-12-18T09:37:56;-8.00;99.90
44705;DHT22;30431;48.520;9.046;2022-12-18T09:40:25;-8.10;99.90
44705;DHT22;30431;48.520;9.046;2022-12-18T09:42:55;-8.10;99.90
44705;DHT22;30431;48.520;9.046;2022-12-18T09:45:23;-8.00;99.90
44705;DHT22;30431;48.520;9.046;2022-12-18T09:47:50;-7.90;99.90
44705;DHT22;30431;48.520;9.046;2022-12-18T09:50:24;-7.70;99.90
44705;DHT22;30431;48.520;9.046;2022-12-18T09:52:56;-7.80;99.90
44705;DHT22;30431;48.520;9.046;2022-12-18T09:55:28;-7.80;99.90
44705;DHT22;30431;48.520;9.046;2022-12-18T10:00:47;-7.60;99.90
44705;DHT22;30431;48.520;9.046;2022-12-18T10:03:15;-7.40;99.90
44705;DHT22;30431;48.520;9.046;2022-12-18T10:05:46;-7.40;99.90
44705;DHT22;30431;48.520;9.046;2022-12-18T10:08:22;-7.30;99.90
44705;DHT22;30431;48.520;9.046;2022-12-18T10:11:01;-7.00;99.90
44705;DHT22;30431;48.520;9.046;2022-12-18T10:13:35;-6.90;99.90
44705;DHT22;30431;48.520;9.046;2022-12-18T10:21:06;-6.60;99.90
44705;DHT22;30431;48.520;9.046;2022-12-18T10:23:39;-6.60;99.90
44705;DHT22;30431;48.520;9.046;2022-12-18T10:26:14;-6.50;99.90
44705;DHT22;30431;48.520;9.046;2022-12-18T10:28:48;-6.40;99.90
44705;DHT22;30431;48.520;9.046;2022-12-18T10:31:23;-6.30;99.90
44705;DHT22;30431;48.520;9.046;2022-12-18T10:33:55;-6.20;99.90
44705;DHT22;30431;48.520;9.046;2022-12-18T10:36:25;-6.10;99.90
44705;DHT22;30431;48.520;9.046;2022-12-18T10:38:52;-6.10;99.90
44705;DHT22;30431;48.520;9.046;2022-12-18T10:46:38;-6.00;99.90
44705;DHT22;30431;48.520;9.046;2022-12-18T10:49:18;-5.80;99.90
44705;DHT22;30431;48.520;9.046;2022-12-18T10:51:45;-5.80;99.90
44705;DHT22;30431;48.520;9.046;2022-12-18T10:54:14;-5.70;99.90
44705;DHT22;30431;48.520;9.046;2022-12-18T10:56:43;-5.70;99.90
44705;DHT22;30431;48.520;9.046;2022-12-18T10:59:13;-5.60;99.90
44705;DHT22;30431;48.520;9.046;2022-12-18T11:04:18;-5.50;99.90
44705;DHT22;30431;48.520;9.046;2022-12-18T11:06:53;-5.70;99.90
44705;DHT22;30431;48.520;9.046;2022-12-18T11:09:21;-5.50;99.90
44705;DHT22;30431;48.520;9.046;2022-12-18T11:11:51;-5.40;99.90
44705;DHT22;30431;48.520;9.046;2022-12-18T11:14:24;-5.50;99.90
44705;DHT22;30431;48.520;9.046;2022-12-18T11:16:52;-5.30;99.90
44705;DHT22;30431;48.520;9.046;2022-12-18T11:19:42;-5.10;99.90
44705;DHT22;30431;48.520;9.046;2022-12-18T11:22:23;-5.10;99.90
44705;DHT22;30431;48.520;9.046;2022-12-18T11:24:59;-5.20;99.90
44705;DHT22;30431;48.520;9.046;2022-12-18T11:27:51;-5.20;99.90
44705;DHT22;30431;48.520;9.046;2022-12-18T11:36:10;-4.90;99.90
44705;DHT22;30431;48.520;9.046;2022-12-18T11:38:37;-4.70;99.90
44705;DHT22;30431;48.520;9.046;2022-12-18T11:41:07;-4.50;99.90
44705;DHT22;30431;48.520;9.046;2022-12-18T11:43:48;-4.60;99.90
44705;DHT22;30431;48.520;9.046;2022-12-18T11:46:17;-4.50;99.90
44705;DHT22;30431;48.520;9.046;2022-12-18T11:48:49;-4.40;99.90
44705;DHT22;30431;48.520;9.046;2022-12-18T11:51:30;-4.20;99.90
44705;DHT22;30431;48.520;9.046;2022-12-18T11:54:00;-4.10;99.90
44705;DHT22;30431;48.520;9.046;2022-12-18T11:56:43;-4.00;99.90
44705;DHT22;30431;48.520;9.046;2022-12-18T12:04:46;-3.70;99.90
44705;DHT22;30431;48.520;9.046;2022-12-18T12:07:27;-3.60;99.90
44705;DHT22;30431;48.520;9.046;2022-12-18T12:17:53;-3.60;99.90
44705;DHT22;30431;48.520;9.046;2022-12-18T12:20:29;-3.50;99.90
44705;DHT22;30431;48.520;9.046;2022-12-18T12:23:22;-3.40;99.90
44705;DHT22;30431;48.520;9.046;2022-12-18T12:26:01;-3.20;99.90
44705;DHT22;30431;48.520;9.046;2022-12-18T12:33:55;-3.20;99.90
44705;DHT22;30431;48.520;9.046;2022-12-18T12:38:52;-3.10;99.90
44705;DHT22;30431;48.520;9.046;2022-12-18T12:41:22;-3.20;99.90
44705;DHT22;30431;48.520;9.046;2022-12-18T12:44:13;-3.20;99.90
44705;DHT22;30431;48.520;9.046;2022-12-18T12:46:44;-3.30;99.90
44705;DHT22;30431;48.520;9.046;2022-12-18T12:49:13;-3.40;99.90
44705;DHT22;30431;48.520;9.046;2022-12-18T12:51:45;-3.40;99.90
44705;DHT22;30431;48.520;9.046;2022-12-18T12:54:19;-3.30;99.90
44705;DHT22;30431;48.520;9.046;2022-12-18T12:56:49;-3.30;99.90
44705;DHT22;30431;48.520;9.046;2022-12-18T12:59:20;-3.20;99.90
44705;DHT22;30431;48.520;9.046;2022-12-18T13:04:38;-3.00;99.90
44705;DHT22;30431;48.520;9.046;2022-12-18T13:07:15;-3.00;99.90
44705;DHT22;30431;48.520;9.046;2022-12-18T13:25:52;-3.20;99.90
44705;DHT22;30431;48.520;9.046;2022-12-18T13:31:05;-3.40;99.90
44705;DHT22;30431;48.520;9.046;2022-12-18T13:33:42;-3.40;99.90
44705;DHT22;30431;48.520;9.046;2022-12-18T13:36:33;-3.50;99.90
44705;DHT22;30431;48.520;9.046;2022-12-18T13:42:38;-3.30;99.90
44705;DHT22;30431;48.520;9.046;2022-12-18T13:44:59;-3.20;99.90
44705;DHT22;30431;48.520;9.046;2022-12-18T13:47:33;-3.10;99.90
44705;DHT22;30431;48.520;9.046;2022-12-18T13:50:20;-3.10;99.90
44705;DHT22;30431;48.520;9.046;2022-12-18T13:52:55;-3.00;99.90
44705;DHT22;30431;48.520;9.046;2022-12-18T13:55:22;-3.10;99.90
44705;DHT22;30431;48.520;9.046;2022-12-18T13:58:02;-3.20;99.90
44705;DHT22;30431;48.520;9.046;2022-12-18T14:00:32;-3.20;99.90
44705;DHT22;30431;48.520;9.046;2022-12-18T14:03:01;-3.20;99.90
44705;DHT22;30431;48.520;9.046;2022-12-18T14:05:30;-3.10;99.90
44705;DHT22;30431;48.520;9.046;2022-12-18T14:08:01;-3.20;99.90
44705;DHT22;30431;48.520;9.046;2022-12-18T14:10:34;-3.20;99.90
44705;DHT22;30431;48.520;9.046;2022-12-18T14:13:17;-3.30;99.90
44705;DHT22;30431;48.520;9.046;2022-12-18T14:15:46;-3.30;99.90
44705;DHT22;30431;48.520;9.046;2022-12-18T14:18:24;-3.30;99.90
44705;DHT22;30431;48.520;9.046;2022-12-18T14:20:54;-3.40;99.90
44705;DHT22;30431;48.520;9.046;2022-12-18T14:26:00;-3.40;99.90
44705;DHT22;30431;48.520;9.046;2022-12-18T14:28:31;-3.50;99.90
44705;DHT22;30431;48.520;9.046;2022-12-18T14:30:58;-3.50;99.90
44705;DHT22;30431;48.520;9.046;2022-12-18T14:33:27;-3.50;99.90
44705;DHT22;30431;48.520;9.046;2022-12-18T14:35:59;-3.50;99.90
44705;DHT22;30431;48.520;9.046;2022-12-18T14:38:28;-3.60;99.90
44705;DHT22;30431;48.520;9.046;2022-12-18T14:41:03;-3.50;99.90
44705;DHT22;30431;48.520;9.046;2022-12-18T14:43:34;-3.60;99.90
44705;DHT22;30431;48.520;9.046;2022-12-18T14:46:02;-3.60;99.90
44705;DHT22;30431;48.520;9.046;2022-12-18T14:48:37;-3.60;99.90
44705;DHT22;30431;48.520;9.046;2022-12-18T14:53:38;-3.70;99.90
44705;DHT22;30431;48.520;9.046;2022-12-18T14:56:28;-3.70;99.90
44705;DHT22;30431;48.520;9.046;2022-12-18T14:59:01;-3.80;99.90
44705;DHT22;30431;48.520;9.046;2022-12-18T15:01:37;-3.70;99.90
44705;DHT22;30431;48.520;9.046;2022-12-18T15:04:25;-3.80;99.90
44705;DHT22;30431;48.520;9.046;2022-12-18T15:09:38;-4.00;99.90
44705;DHT22;30431;48.520;9.046;2022-12-18T15:12:15;-4.10;99.90
44705;DHT22;30431;48.520;9.046;2022-12-18T15:14:46;-4.20;99.90
44705;DHT22;30431;48.520;9.046;2022-12-18T15:17:15;-4.30;99.90
44705;DHT22;30431;48.520;9.046;2022-12-18T15:19:43;-4.30;99.90
44705;DHT22;30431;48.520;9.046;2022-12-18T15:22:21;-4.40;99.90
44705;DHT22;30431;48.520;9.046;2022-12-18T15:24:48;-4.50;99.90
44705;DHT22;30431;48.520;9.046;2022-12-18T15:27:36;-4.50;99.90
44705;DHT22;30431;48.520;9.046;2022-12-18T15:30:18;-4.60;99.90
44705;DHT22;30431;48.520;9.046;2022-12-18T15:32:45;-4.60;99.90
44705;DHT22;30431;48.520;9.046;2022-12-18T15:35:17;-4.70;99.90
44705;DHT22;30431;48.520;9.046;2022-12-18T15:37:44;-4.80;99.90
44705;DHT22;30431;48.520;9.046;2022-12-18T15:40:14;-4.90;99.90
44705;DHT22;30431;48.520;9.046;2022-12-18T15:42:43;-4.90;99.90
44705;DHT22;30431;48.520;9.046;2022-12-18T15:45:29;-4.90;99.90
44705;DHT22;30431;48.520;9.046;2022-12-18T15:48:10;-4.90;99.90
44705;DHT22;30431;48.520;9.046;2022-12-18T15:50:41;-5.00;99.90
44705;DHT22;30431;48.520;9.046;2022-12-18T15:53:08;-5.00;99.90
44705;DHT22;30431;48.520;9.046;2022-12-18T15:55:35;-5.10;99.90
44705;DHT22;30431;48.520;9.046;2022-12-18T15:58:26;-5.20;99.90
44705;DHT22;30431;48.520;9.046;2022-12-18T16:00:53;-5.30;99.90
44705;DHT22;30431;48.520;9.046;2022-12-18T16:03:22;-5.30;99.90
44705;DHT22;30431;48.520;9.046;2022-12-18T16:05:51;-5.30;99.90
44705;DHT22;30431;48.520;9.046;2022-12-18T16:08:19;-5.30;99.90
44705;DHT22;30431;48.520;9.046;2022-12-18T16:10:48;-5.20;99.90
44705;DHT22;30431;48.520;9.046;2022-12-18T16:13:15;-5.30;99.90
44705;DHT22;30431;48.520;9.046;2022-12-18T16:15:46;-5.40;99.90
44705;DHT22;30431;48.520;9.046;2022-12-18T16:18:15;-5.40;99.90
44705;DHT22;30431;48.520;9.046;2022-12-18T16:20:42;-5.40;99.90
44705;DHT22;30431;48.520;9.046;2022-12-18T16:23:09;-5.40;99.90
44705;DHT22;30431;48.520;9.046;2022-12-18T16:25:36;-5.40;99.90
44705;DHT22;30431;48.520;9.046;2022-12-18T16:28:08;-5.30;99.90
44705;DHT22;30431;48.520;9.046;2022-12-18T16:30:35;-5.20;99.90
44705;DHT22;30431;48.520;9.046;2022-12-18T16:33:05;-5.10;99.90
44705;DHT22;30431;48.520;9.046;2022-12-18T16:35:33;-5.10;99.90
44705;DHT22;30431;48.520;9.046;2022-12-18T16:38:00;-5.00;99.90
44705;DHT22;30431;48.520;9.046;2022-12-18T16:40:27;-5.00;99.90
44705;DHT22;30431;48.520;9.046;2022-12-18T16:42:54;-5.00;99.90
44705;DHT22;30431;48.520;9.046;2022-12-18T16:45:21;-5.00;99.90
44705;DHT22;30431;48.520;9.046;2022-12-18T16:47:48;-5.00;99.90
44705;DHT22;30431;48.520;9.046;2022-12-18T16:50:18;-5.10;99.90
44705;DHT22;30431;48.520;9.046;2022-12-18T16:52:47;-5.00;99.90
44705;DHT22;30431;48.520;9.046;2022-12-18T16:55:14;-4.80;99.90
44705;DHT22;30431;48.520;9.046;2022-12-18T16:57:44;-4.70;99.90
44705;DHT22;30431;48.520;9.046;2022-12-18T17:00:13;-4.70;99.90
44705;DHT22;30431;48.520;9.046;2022-12-18T17:02:43;-4.60;99.90
44705;DHT22;30431;48.520;9.046;2022-12-18T17:05:12;-4.50;99.90
44705;DHT22;30431;48.520;9.046;2022-12-18T17:07:39;-4.50;99.90
44705;DHT22;30431;48.520;9.046;2022-12-18T17:10:07;-4.40;99.90
44705;DHT22;30431;48.520;9.046;2022-12-18T17:12:35;-4.20;99.90
44705;DHT22;30431;48.520;9.046;2022-12-18T17:15:05;-4.20;99.90
44705;DHT22;30431;48.520;9.046;2022-12-18T17:17:32;-4.20;99.90
44705;DHT22;30431;48.520;9.046;2022-12-18T17:20:02;-4.20;99.90
44705;DHT22;30431;48.520;9.046;2022-12-18T17:22:31;-4.40;99.90
44705;DHT22;30431;48.520;9.046;2022-12-18T17:24:57;-4.50;99.90
44705;DHT22;30431;48.520;9.046;2022-12-18T17:27:24;-4.70;99.90
44705;DHT22;30431;48.520;9.046;2022-12-18T17:29:54;-4.60;99.90
44705;DHT22;30431;48.520;9.046;2022-12-18T17:32:21;-4.40;99.90
44705;DHT22;30431;48.520;9.046;2022-12-18T17:34:50;-4.50;99.90
44705;DHT22;30431;48.520;9.046;2022-12-18T17:37:17;-4.50;99.90
44705;DHT22;30431;48.520;9.046;2022-12-18T17:39:44;-4.60;99.90
44705;DHT22;30431;48.520;9.046;2022-12-18T17:42:11;-4.60;99.90